Time;durP1;ratioP1;P1;durP2;ratioP2;P2;SDS_P1;SDS_P2;PMS_P1;PMS_P2;Temp;Humidity;BMP_temperature;BMP_pressure;BME280_temperature;BME280_humidity;BME280_pressure;Samples;Min_cycle;Max_cycle;Signal;HPM_P1;HPM_P2
2022/05/04 00:00:53;;;;;;;1.05;1.05;;;11.30;99.90;;;;;;5043636;28;20312;-62
2022/05/04 00:03:20;;;;;;;0.90;0.90;;;11.20;99.90;;;;;;5036137;28;20235;-62
2022/05/04 00:05:48;;;;;;;0.80;0.80;;;11.20;99.90;;;;;;5032422;28;20292;-63
2022/05/04 00:08:17;;;;;;;0.93;0.93;;;11.20;99.90;;;;;;5032585;28;20303;-62
2022/05/04 00:10:44;;;;;;;0.90;0.90;;;11.20;99.90;;;;;;5031419;28;20264;-62
2022/05/04 00:13:11;;;;;;;0.90;0.90;;;11.10;99.90;;;;;;5032311;28;20248;-62
2022/05/04 00:15:37;;;;;;;0.90;0.90;;;11.00;99.90;;;;;;5032465;28;20206;-62
2022/05/04 00:18:04;;;;;;;0.90;0.90;;;11.10;99.90;;;;;;5032232;28;20204;-63
2022/05/04 00:20:31;;;;;;;1.00;0.90;;;11.10;99.90;;;;;;5031056;28;20278;-62
2022/05/04 00:22:58;;;;;;;1.10;1.00;;;11.10;99.90;;;;;;5032449;28;20247;-63
2022/05/04 00:25:27;;;;;;;1.10;1.02;;;11.20;99.90;;;;;;5032472;28;20287;-62
2022/05/04 00:27:54;;;;;;;1.00;0.90;;;11.10;99.90;;;;;;5032208;28;20312;-61
2022/05/04 00:30:20;;;;;;;1.07;0.87;;;11.20;99.90;;;;;;5025770;28;20232;-62
2022/05/04 00:32:47;;;;;;;0.90;0.90;;;11.20;99.90;;;;;;5031411;28;20204;-62
2022/05/04 00:35:14;;;;;;;0.90;0.90;;;11.20;99.90;;;;;;5046692;28;20204;-62
2022/05/04 00:37:41;;;;;;;0.80;0.80;;;11.30;99.90;;;;;;5051845;28;20619;-62
2022/05/04 00:40:09;;;;;;;0.90;0.90;;;11.30;99.90;;;;;;5050596;28;20789;-62
2022/05/04 00:42:38;;;;;;;0.90;0.90;;;11.30;99.90;;;;;;5051593;28;20308;-62
2022/05/04 00:45:05;;;;;;;0.80;0.80;;;11.30;99.90;;;;;;5051595;28;20277;-62
2022/05/04 00:47:32;;;;;;;0.87;0.87;;;11.20;99.90;;;;;;5051393;28;20238;-62
2022/05/04 00:50:04;;;;;;;0.80;0.80;;;11.20;99.90;;;;;;5051188;28;20255;-62
2022/05/04 00:52:31;;;;;;;0.80;0.80;;;11.40;99.90;;;;;;5056897;28;20203;-62
2022/05/04 00:54:58;;;;;;;0.98;0.98;;;11.30;99.90;;;;;;5059898;28;20222;-62
2022/05/04 01:00:09;;;;;;;0.73;0.73;;;11.30;99.90;;;;;;5054026;28;20239;-62
2022/05/04 01:02:38;;;;;;;0.87;0.87;;;11.20;99.90;;;;;;5039274;28;20275;-62
2022/05/04 01:05:09;;;;;;;0.70;0.70;;;11.10;99.90;;;;;;5039152;28;20213;-62
2022/05/04 01:07:36;;;;;;;0.93;0.93;;;11.10;99.90;;;;;;5048906;28;20192;-62
2022/05/04 01:10:04;;;;;;;0.90;0.90;;;11.10;99.90;;;;;;5050879;28;20940;-62
2022/05/04 01:12:31;;;;;;;0.90;0.90;;;11.00;99.90;;;;;;5040367;28;20218;-63
2022/05/04 01:14:58;;;;;;;0.90;0.90;;;11.00;99.90;;;;;;5051837;28;20273;-63
2022/05/04 01:17:27;;;;;;;1.10;1.00;;;11.00;99.90;;;;;;5036171;28;20291;-63
2022/05/04 01:19:55;;;;;;;0.90;0.90;;;11.00;99.90;;;;;;5030750;28;20609;-63
2022/05/04 01:22:24;;;;;;;1.23;1.07;;;11.00;99.90;;;;;;5032106;28;20211;-62
2022/05/04 01:24:51;;;;;;;1.00;0.97;;;11.00;99.90;;;;;;5031511;28;20211;-63
2022/05/04 01:27:18;;;;;;;2.93;1.17;;;10.90;99.90;;;;;;5031406;28;20718;-62
2022/05/04 01:29:46;;;;;;;1.52;1.27;;;10.90;99.90;;;;;;5031130;28;20307;-61
2022/05/04 01:32:13;;;;;;;0.90;0.90;;;10.90;99.90;;;;;;5031692;28;20235;-62
2022/05/04 01:34:40;;;;;;;1.00;1.00;;;10.80;99.90;;;;;;5031422;28;20268;-62
2022/05/04 01:37:07;;;;;;;1.00;1.00;;;10.80;99.90;;;;;;5031491;28;20209;-62
2022/05/04 01:39:35;;;;;;;0.80;0.80;;;10.60;99.90;;;;;;5030814;28;20554;-61
2022/05/04 01:42:09;;;;;;;0.90;0.90;;;10.40;99.90;;;;;;5031283;28;20231;-63
2022/05/04 01:44:36;;;;;;;1.00;1.00;;;10.30;99.90;;;;;;5031206;28;20216;-63
2022/05/04 01:47:03;;;;;;;1.00;1.00;;;10.30;99.90;;;;;;5031886;28;20210;-62
2022/05/04 01:49:30;;;;;;;0.93;0.93;;;10.30;99.90;;;;;;5034466;28;20263;-62
2022/05/04 01:51:57;;;;;;;0.88;0.88;;;10.30;99.90;;;;;;5031295;28;20243;-62
2022/05/04 01:54:24;;;;;;;0.90;0.90;;;10.30;99.90;;;;;;5031145;28;20558;-62
2022/05/04 01:56:53;;;;;;;0.90;0.90;;;10.30;99.90;;;;;;5031148;28;20227;-63
2022/05/04 01:59:20;;;;;;;1.00;1.00;;;10.30;99.90;;;;;;5030234;28;20574;-63
2022/05/04 02:01:47;;;;;;;0.93;0.93;;;10.30;99.90;;;;;;5029559;28;20212;-62
2022/05/04 02:04:14;;;;;;;0.87;0.87;;;10.30;99.90;;;;;;5045795;28;20195;-62
2022/05/04 02:06:42;;;;;;;0.93;0.93;;;10.40;99.90;;;;;;5050644;28;20727;-62
2022/05/04 02:09:09;;;;;;;1.00;1.00;;;10.40;99.90;;;;;;5050016;28;20204;-62
2022/05/04 02:11:37;;;;;;;1.00;1.00;;;10.30;99.90;;;;;;5050551;28;20211;-62
2022/05/04 02:14:06;;;;;;;0.90;0.90;;;10.30;99.90;;;;;;5050513;28;20212;-63
2022/05/04 02:16:33;;;;;;;1.10;1.10;;;10.30;99.90;;;;;;5055499;28;20207;-63
2022/05/04 02:19:00;;;;;;;1.03;1.03;;;10.40;99.90;;;;;;5050971;28;20203;-62
2022/05/04 02:21:27;;;;;;;0.90;0.90;;;10.40;99.90;;;;;;5052949;28;20227;-63
2022/05/04 02:23:54;;;;;;;0.90;0.90;;;10.50;99.90;;;;;;5055341;28;20303;-63
2022/05/04 02:26:21;;;;;;;1.00;1.00;;;10.50;99.90;;;;;;5053665;28;20207;-63
2022/05/04 02:28:48;;;;;;;0.80;0.80;;;10.60;99.90;;;;;;5050279;28;20303;-62
2022/05/04 02:31:16;;;;;;;0.90;0.90;;;10.60;99.90;;;;;;5050335;28;20223;-61
2022/05/04 02:33:44;;;;;;;1.20;1.10;;;10.50;99.90;;;;;;5050870;28;20219;-62
2022/05/04 02:38:55;;;;;;;1.33;1.10;;;10.40;99.90;;;;;;5035575;28;20233;-63
2022/05/04 02:41:22;;;;;;;1.00;1.00;;;10.30;99.90;;;;;;5050519;28;20641;-62
2022/05/04 02:43:49;;;;;;;0.93;0.93;;;10.30;99.90;;;;;;5051066;28;20204;-63
2022/05/04 02:46:19;;;;;;;1.13;1.10;;;10.40;99.90;;;;;;5050801;28;20290;-63
2022/05/04 02:48:46;;;;;;;1.17;1.00;;;10.40;99.90;;;;;;5050193;28;20208;-63
2022/05/04 02:51:13;;;;;;;0.80;0.80;;;10.30;99.90;;;;;;5050260;28;20251;-62
2022/05/04 02:53:41;;;;;;;0.90;0.90;;;10.40;99.90;;;;;;5050629;28;20321;-62
2022/05/04 02:56:08;;;;;;;0.90;0.90;;;10.40;99.90;;;;;;5050365;28;20642;-63
2022/05/04 02:58:35;;;;;;;0.90;0.90;;;10.40;99.90;;;;;;5049566;28;20212;-63
2022/05/04 03:02:26;;;;;;;1.20;0.90;;;10.30;99.90;;;;;;5050376;28;20227;-62
2022/05/04 03:03:57;;;;;;;1.47;1.10;;;10.30;99.90;;;;;;5049975;28;20622;-61
2022/05/04 03:06:24;;;;;;;0.90;0.90;;;10.20;99.90;;;;;;5050308;28;20208;-63
2022/05/04 03:08:51;;;;;;;1.10;1.10;;;10.20;99.90;;;;;;5049636;28;20203;-63
2022/05/04 03:14:03;;;;;;;1.10;1.10;;;10.10;99.90;;;;;;5050626;28;20314;-63
2022/05/04 03:16:29;;;;;;;1.20;1.10;;;10.10;99.90;;;;;;5050922;28;20208;-64
2022/05/04 03:18:58;;;;;;;0.80;0.80;;;10.00;99.90;;;;;;5049920;28;20321;-63
2022/05/04 03:21:25;;;;;;;1.00;1.00;;;10.00;99.90;;;;;;5050681;28;20319;-63
2022/05/04 03:23:51;;;;;;;1.00;1.00;;;10.00;99.90;;;;;;5050860;28;20248;-63
2022/05/04 03:26:18;;;;;;;1.00;1.00;;;10.00;99.90;;;;;;5042359;28;20300;-64
2022/05/04 03:28:45;;;;;;;1.00;1.00;;;10.00;99.90;;;;;;5030351;28;20216;-62
2022/05/04 03:31:13;;;;;;;1.10;1.10;;;10.00;99.90;;;;;;5032741;28;20715;-62
2022/05/04 03:33:39;;;;;;;1.03;1.03;;;9.90;99.90;;;;;;5034696;28;20531;-62
2022/05/04 03:36:08;;;;;;;0.90;0.90;;;9.80;99.90;;;;;;5034133;28;20292;-64
2022/05/04 03:38:35;;;;;;;1.03;1.03;;;9.80;99.90;;;;;;5033182;28;20339;-64
2022/05/04 03:41:02;;;;;;;1.00;1.00;;;9.80;99.90;;;;;;5035513;28;20231;-63
2022/05/04 03:43:29;;;;;;;1.20;1.03;;;9.80;99.90;;;;;;5037690;28;20204;-63
2022/05/04 03:45:56;;;;;;;0.90;0.90;;;9.60;99.90;;;;;;5037058;28;20295;-64
2022/05/04 03:48:23;;;;;;;0.98;0.98;;;9.60;99.90;;;;;;5036078;28;20232;-63
2022/05/04 03:50:49;;;;;;;1.17;1.13;;;9.60;99.90;;;;;;5035298;28;20304;-62
2022/05/04 03:53:18;;;;;;;1.00;1.00;;;9.60;99.90;;;;;;5035748;28;20268;-62
2022/05/04 03:55:45;;;;;;;1.00;1.00;;;9.60;99.90;;;;;;5036770;28;20421;-62
2022/05/04 03:58:12;;;;;;;1.00;1.00;;;9.70;99.90;;;;;;5036613;28;20205;-61
2022/05/04 04:00:39;;;;;;;1.02;1.02;;;9.80;99.90;;;;;;5035825;28;20290;-62
2022/05/04 04:03:05;;;;;;;1.10;1.10;;;9.90;99.90;;;;;;5037186;28;20295;-63
2022/05/04 04:05:32;;;;;;;1.08;1.08;;;9.90;99.90;;;;;;5039735;28;20654;-61
2022/05/04 04:07:59;;;;;;;1.07;1.07;;;10.00;99.90;;;;;;5039270;28;20615;-65
2022/05/04 04:10:27;;;;;;;1.00;1.00;;;10.00;99.90;;;;;;5035459;28;20315;-63
2022/05/04 04:12:54;;;;;;;1.00;1.00;;;10.00;99.90;;;;;;5035119;28;20226;-62
2022/05/04 04:15:21;;;;;;;1.00;1.00;;;10.00;99.90;;;;;;5034307;28;20267;-63
2022/05/04 04:17:48;;;;;;;1.00;1.00;;;10.10;99.90;;;;;;5035276;28;20348;-63
2022/05/04 04:23:02;;;;;;;1.00;1.00;;;10.20;99.90;;;;;;5035421;28;20207;-63
2022/05/04 04:25:30;;;;;;;1.00;1.00;;;10.20;99.90;;;;;;5031837;28;20211;-63
2022/05/04 04:27:57;;;;;;;0.97;0.97;;;10.30;99.90;;;;;;5053852;28;20192;-63
2022/05/04 04:30:24;;;;;;;1.07;1.07;;;10.30;99.90;;;;;;5052139;28;20228;-63
2022/05/04 04:32:51;;;;;;;1.00;1.00;;;10.40;99.90;;;;;;5048331;28;20283;-62
2022/05/04 04:35:19;;;;;;;1.10;1.10;;;10.40;99.90;;;;;;5057697;28;20246;-64
2022/05/04 04:37:45;;;;;;;1.00;1.00;;;10.40;99.90;;;;;;5029737;28;20208;-63
2022/05/04 04:40:12;;;;;;;1.00;1.00;;;10.50;99.90;;;;;;5025365;28;20690;-64
2022/05/04 04:42:41;;;;;;;1.40;1.30;;;10.40;99.90;;;;;;5042582;28;20211;-63
2022/05/04 04:45:09;;;;;;;0.90;0.90;;;10.50;99.90;;;;;;5041833;28;20196;-63
2022/05/04 04:47:35;;;;;;;1.07;1.07;;;10.50;99.90;;;;;;5037924;28;20662;-64
2022/05/04 04:50:02;;;;;;;1.10;1.10;;;10.60;99.90;;;;;;5044292;28;20303;-64
2022/05/04 04:52:29;;;;;;;1.07;1.07;;;10.60;99.90;;;;;;5041011;28;20297;-63
2022/05/04 04:54:56;;;;;;;1.00;1.00;;;10.70;99.90;;;;;;5053178;28;20228;-63
2022/05/04 04:57:23;;;;;;;1.10;1.10;;;10.70;99.90;;;;;;5036911;28;20280;-62
2022/05/04 04:59:51;;;;;;;1.20;1.20;;;10.70;99.90;;;;;;5034712;28;20786;-62
2022/05/04 05:02:18;;;;;;;1.10;1.10;;;10.80;99.90;;;;;;5028981;28;20249;-64
2022/05/04 05:04:45;;;;;;;1.10;1.10;;;10.80;99.90;;;;;;5025309;28;20205;-62
2022/05/04 05:07:12;;;;;;;1.00;1.00;;;10.80;99.90;;;;;;5018976;28;20608;-62
2022/05/04 05:09:39;;;;;;;1.20;1.20;;;10.90;99.90;;;;;;5017811;28;20324;-62
2022/05/04 05:12:07;;;;;;;1.00;1.00;;;10.90;99.90;;;;;;5037212;28;20664;-63
2022/05/04 05:17:19;;;;;;;1.10;1.10;;;11.20;99.90;;;;;;5053220;28;20649;-61
2022/05/04 05:19:46;;;;;;;1.30;1.23;;;11.10;99.90;;;;;;5051653;28;20227;-63
2022/05/04 05:22:13;;;;;;;1.00;1.00;;;11.10;99.90;;;;;;5052410;28;20310;-62
2022/05/04 05:24:40;;;;;;;1.33;1.23;;;11.10;99.90;;;;;;5052281;28;20579;-64
2022/05/04 05:27:09;;;;;;;1.23;1.20;;;11.10;99.90;;;;;;5052182;28;20643;-62
2022/05/04 05:29:36;;;;;;;1.10;1.10;;;11.20;99.90;;;;;;5051988;28;20228;-64
2022/05/04 05:32:03;;;;;;;1.20;1.20;;;11.20;99.90;;;;;;5044549;28;20193;-65
2022/05/04 05:34:33;;;;;;;1.20;1.20;;;11.20;99.90;;;;;;5034027;28;20268;-63
2022/05/04 05:37:00;;;;;;;1.40;1.30;;;11.20;99.90;;;;;;5044316;28;20200;-62
2022/05/04 05:39:28;;;;;;;1.10;1.10;;;11.20;99.90;;;;;;5051426;28;20302;-64
2022/05/04 05:41:55;;;;;;;1.30;1.20;;;11.30;99.90;;;;;;5051774;28;20365;-63
2022/05/04 05:44:22;;;;;;;1.13;1.13;;;11.30;99.90;;;;;;5052040;28;20752;-63
2022/05/04 05:46:49;;;;;;;2.50;1.20;;;11.40;99.90;;;;;;5052107;28;20235;-63
2022/05/04 05:49:16;;;;;;;1.10;1.10;;;11.50;99.90;;;;;;5051525;28;20214;-62
2022/05/04 05:51:44;;;;;;;1.10;1.10;;;11.50;99.90;;;;;;5042693;28;20207;-62
2022/05/04 05:54:11;;;;;;;1.00;1.00;;;11.60;99.90;;;;;;5032142;28;20739;-63
2022/05/04 05:56:38;;;;;;;1.10;1.10;;;11.60;99.90;;;;;;5028185;28;20292;-62
2022/05/04 05:59:05;;;;;;;1.00;1.00;;;11.70;99.90;;;;;;5024730;28;21520;-62
2022/05/04 06:01:32;;;;;;;1.10;1.10;;;11.80;99.90;;;;;;5027817;28;20228;-64
2022/05/04 06:03:59;;;;;;;1.00;1.00;;;11.90;99.90;;;;;;5036620;28;20271;-63
2022/05/04 06:06:25;;;;;;;0.97;0.97;;;11.90;99.90;;;;;;5038426;28;20235;-62
2022/05/04 06:08:54;;;;;;;1.00;1.00;;;12.00;99.90;;;;;;5038339;28;20250;-63
2022/05/04 06:11:21;;;;;;;1.00;1.00;;;12.10;99.90;;;;;;5035152;28;20307;-63
2022/05/04 06:13:51;;;;;;;1.10;1.10;;;12.10;99.90;;;;;;5032063;28;20250;-62
2022/05/04 06:16:18;;;;;;;1.20;1.20;;;12.20;99.90;;;;;;5031874;28;20224;-64
2022/05/04 06:18:45;;;;;;;1.10;1.10;;;12.20;99.90;;;;;;5036438;28;20667;-64
2022/05/04 06:21:12;;;;;;;1.13;1.13;;;12.30;99.90;;;;;;5036073;28;20741;-66
2022/05/04 06:23:39;;;;;;;1.03;1.03;;;12.30;99.90;;;;;;5046180;28;20287;-64
2022/05/04 06:26:07;;;;;;;1.30;1.20;;;12.30;99.90;;;;;;5036698;28;20760;-65
2022/05/04 06:28:34;;;;;;;0.90;0.90;;;12.40;99.90;;;;;;5032661;28;20200;-62
2022/05/04 06:36:30;;;;;;;1.10;1.10;;;12.50;99.90;;;;;;5029573;28;20284;-63
2022/05/04 06:38:56;;;;;;;1.03;1.03;;;12.60;99.90;;;;;;5029491;28;20287;-62
2022/05/04 06:41:25;;;;;;;1.10;1.10;;;12.50;99.90;;;;;;5029000;28;20240;-63
2022/05/04 06:43:52;;;;;;;1.07;1.07;;;12.50;99.90;;;;;;5035828;28;20290;-63
2022/05/04 06:46:19;;;;;;;1.30;1.30;;;12.60;99.90;;;;;;5038884;28;20238;-62
2022/05/04 06:48:46;;;;;;;0.90;0.90;;;12.70;99.90;;;;;;5030849;28;20211;-61
2022/05/04 06:51:13;;;;;;;1.10;1.10;;;12.80;99.90;;;;;;5023274;28;20213;-62
2022/05/04 06:53:40;;;;;;;1.00;1.00;;;12.90;99.90;;;;;;5016925;28;20204;-64
2022/05/04 06:56:07;;;;;;;0.90;0.90;;;13.00;99.90;;;;;;5033107;28;20285;-62
2022/05/04 06:58:35;;;;;;;1.10;1.07;;;13.10;99.90;;;;;;5028252;28;20216;-63
2022/05/04 07:01:03;;;;;;;1.00;1.00;;;13.20;99.90;;;;;;5038938;28;20234;-63
2022/05/04 07:03:31;;;;;;;1.00;1.00;;;13.30;99.90;;;;;;5036273;28;20236;-62
2022/05/04 07:05:58;;;;;;;1.00;1.00;;;13.30;99.90;;;;;;5037456;28;20735;-62
2022/05/04 07:08:25;;;;;;;1.00;1.00;;;13.40;99.90;;;;;;5047125;28;20211;-62
2022/05/04 07:10:52;;;;;;;1.00;1.00;;;13.50;99.90;;;;;;5035525;28;20575;-62
2022/05/04 07:13:19;;;;;;;1.13;1.13;;;13.50;99.90;;;;;;5039100;28;20211;-61
2022/05/04 07:15:47;;;;;;;1.10;1.10;;;13.50;99.90;;;;;;5053843;28;20207;-62
2022/05/04 07:18:14;;;;;;;1.27;1.27;;;13.60;99.90;;;;;;5054488;28;20254;-62
2022/05/04 07:20:41;;;;;;;1.30;1.30;;;13.60;99.90;;;;;;5053894;28;20365;-62
2022/05/04 07:23:08;;;;;;;1.20;1.20;;;13.60;99.90;;;;;;5055320;28;20200;-62
2022/05/04 07:25:35;;;;;;;1.20;1.20;;;13.50;99.90;;;;;;5054707;28;20626;-61
2022/05/04 07:28:01;;;;;;;1.35;1.30;;;13.50;99.90;;;;;;5054597;28;20240;-63
2022/05/04 07:30:28;;;;;;;1.00;1.00;;;13.50;99.90;;;;;;5054595;28;20788;-62
2022/05/04 07:32:56;;;;;;;1.30;1.23;;;13.40;99.90;;;;;;5054199;28;20292;-63
2022/05/04 07:35:23;;;;;;;1.00;1.00;;;13.50;99.90;;;;;;5056850;28;20295;-63
2022/05/04 07:37:50;;;;;;;1.50;1.40;;;13.50;99.90;;;;;;5065127;28;20308;-63
2022/05/04 07:43:02;;;;;;;1.30;1.30;;;13.40;99.90;;;;;;5064218;28;20239;-63
2022/05/04 07:45:29;;;;;;;1.40;1.30;;;13.40;99.90;;;;;;5061373;28;20215;-62
2022/05/04 07:47:57;;;;;;;1.40;1.40;;;13.40;99.90;;;;;;5054564;28;20290;-62
2022/05/04 07:50:25;;;;;;;1.20;1.20;;;13.40;99.90;;;;;;5053409;28;20238;-62
2022/05/04 07:52:53;;;;;;;1.50;1.40;;;13.40;99.90;;;;;;5053936;28;20253;-62
2022/05/04 07:55:19;;;;;;;1.17;1.17;;;13.30;99.90;;;;;;5054065;28;20634;-63
2022/05/04 07:57:48;;;;;;;1.40;1.30;;;13.40;99.90;;;;;;5055515;28;20367;-62
2022/05/04 08:05:46;;;;;;;1.50;1.40;;;13.40;99.90;;;;;;5053991;28;20676;-62
2022/05/04 08:08:13;;;;;;;1.60;1.50;;;13.50;99.90;;;;;;5053868;28;20294;-62
2022/05/04 08:10:41;;;;;;;1.60;1.50;;;13.60;99.90;;;;;;5053196;28;20243;-62
2022/05/04 08:13:08;;;;;;;1.45;1.45;;;13.60;99.90;;;;;;5054114;28;20210;-62
2022/05/04 08:15:35;;;;;;;1.43;1.33;;;13.70;99.90;;;;;;5053471;28;20674;-62
2022/05/04 08:18:03;;;;;;;1.23;1.23;;;13.80;99.90;;;;;;5053727;28;20232;-61
2022/05/04 08:20:30;;;;;;;1.17;1.17;;;14.00;99.90;;;;;;5052740;28;20224;-62
2022/05/04 08:22:57;;;;;;;1.10;1.10;;;14.10;99.90;;;;;;5053367;28;20319;-62
2022/05/04 08:25:25;;;;;;;1.30;1.30;;;14.20;99.90;;;;;;5053683;28;20211;-62
2022/05/04 08:27:52;;;;;;;1.48;1.38;;;14.30;99.90;;;;;;5053395;28;20258;-62
2022/05/04 08:30:20;;;;;;;1.40;1.40;;;14.40;99.90;;;;;;5053442;28;20220;-64
2022/05/04 08:32:48;;;;;;;1.43;1.43;;;14.50;99.90;;;;;;5054902;28;20208;-62
2022/05/04 08:35:17;;;;;;;1.30;1.30;;;14.50;99.90;;;;;;5054458;28;20674;-62
2022/05/04 08:37:44;;;;;;;1.40;1.40;;;14.70;99.90;;;;;;5054291;28;20708;-62
2022/05/04 08:40:12;;;;;;;1.50;1.50;;;14.70;99.90;;;;;;5053970;28;20262;-63
2022/05/04 08:42:41;;;;;;;1.43;1.43;;;14.90;99.90;;;;;;5053966;28;20223;-62
2022/05/04 08:45:11;;;;;;;1.47;1.40;;;15.10;99.90;;;;;;5054350;28;20314;-62
2022/05/04 08:47:40;;;;;;;1.30;1.30;;;15.50;99.90;;;;;;5054129;28;20242;-63
2022/05/04 08:50:11;;;;;;;1.10;1.10;;;15.80;99.90;;;;;;5052327;28;20220;-62
2022/05/04 08:52:43;;;;;;;1.20;1.20;;;16.10;99.90;;;;;;5053010;28;20583;-62
2022/05/04 08:55:11;;;;;;;1.10;1.10;;;16.40;99.90;;;;;;5052891;28;20634;-63
2022/05/04 08:57:40;;;;;;;1.13;1.13;;;16.70;99.90;;;;;;5071135;28;20204;-67
2022/05/04 09:00:10;;;;;;;1.10;1.10;;;17.00;99.90;;;;;;5059105;28;20310;-63
2022/05/04 09:02:38;;;;;;;1.23;1.23;;;17.30;99.90;;;;;;5057619;28;20223;-62
2022/05/04 09:05:16;;;;;;;1.23;1.20;;;17.50;99.90;;;;;;5055383;28;20666;-61
2022/05/04 09:07:45;;;;;;;1.73;1.30;;;17.70;99.90;;;;;;5054607;28;20204;-63
2022/05/04 09:10:22;;;;;;;1.23;1.23;;;17.80;99.90;;;;;;5052183;28;20232;-63
2022/05/04 09:12:51;;;;;;;1.00;1.00;;;18.00;99.90;;;;;;5072012;22;20236;-66
2022/05/04 09:15:20;;;;;;;1.07;1.07;;;18.30;99.90;;;;;;5053068;28;20200;-66
2022/05/04 09:17:47;;;;;;;1.50;1.30;;;18.50;99.90;;;;;;5053012;28;20638;-67
2022/05/04 09:23:00;;;;;;;1.00;1.00;;;18.80;99.90;;;;;;5053078;28;20238;-66
2022/05/04 09:25:27;;;;;;;1.02;1.02;;;18.80;99.90;;;;;;5053301;28;20243;-67
2022/05/04 09:27:56;;;;;;;0.90;0.90;;;18.90;99.90;;;;;;5052825;28;20658;-67
2022/05/04 09:30:26;;;;;;;0.80;0.80;;;19.10;99.90;;;;;;5052887;28;20204;-68
2022/05/04 09:32:53;;;;;;;1.30;1.23;;;19.30;99.90;;;;;;5044656;28;20227;-67
2022/05/04 09:35:20;;;;;;;1.20;1.20;;;19.40;99.90;;;;;;5056587;28;20208;-67
2022/05/04 09:46:06;;;;;;;1.10;1.10;;;19.20;99.90;;;;;;5054227;28;20195;-68
2022/05/04 09:48:34;;;;;;;1.03;1.03;;;19.20;99.90;;;;;;5053508;28;20299;-68
2022/05/04 09:51:06;;;;;;;1.23;1.23;;;19.20;99.90;;;;;;5052272;28;20200;-67
2022/05/04 09:53:33;;;;;;;1.20;1.20;;;19.10;99.90;;;;;;5052403;28;20255;-67
2022/05/04 09:56:02;;;;;;;1.13;1.13;;;19.00;99.90;;;;;;5052267;28;20287;-66
2022/05/04 09:58:30;;;;;;;1.00;1.00;;;19.00;99.90;;;;;;5052039;28;20208;-68
2022/05/04 10:00:59;;;;;;;1.15;1.15;;;19.10;99.90;;;;;;5051913;28;20277;-67
2022/05/04 10:03:26;;;;;;;1.00;1.00;;;19.10;99.90;;;;;;5052328;28;20299;-68
2022/05/04 10:05:55;;;;;;;1.10;1.10;;;19.20;99.90;;;;;;5055283;28;20200;-66
2022/05/04 10:08:22;;;;;;;1.20;1.20;;;19.20;99.90;;;;;;5053841;28;20211;-68
2022/05/04 10:10:51;;;;;;;1.17;1.17;;;19.30;99.90;;;;;;5055190;28;20210;-67
2022/05/04 10:13:20;;;;;;;1.25;1.25;;;19.30;99.90;;;;;;5057005;28;20227;-68
2022/05/04 10:15:51;;;;;;;1.37;1.27;;;19.30;99.90;;;;;;5051852;28;20246;-67
2022/05/04 10:18:23;;;;;;;1.00;1.00;;;19.30;99.90;;;;;;5052222;28;20294;-67
2022/05/04 10:20:56;;;;;;;1.30;1.30;;;19.40;99.90;;;;;;5051632;28;20203;-67
2022/05/04 10:23:26;;;;;;;1.30;1.20;;;19.50;99.90;;;;;;5052025;28;20228;-69
2022/05/04 10:25:54;;;;;;;1.13;1.13;;;19.60;99.90;;;;;;5051804;28;20294;-68
2022/05/04 10:28:24;;;;;;;1.25;1.20;;;19.70;99.90;;;;;;5051749;28;20234;-68
2022/05/04 10:30:53;;;;;;;1.03;1.03;;;19.80;99.90;;;;;;5051278;28;20199;-68
2022/05/04 10:33:25;;;;;;;1.15;1.10;;;19.90;99.90;;;;;;5053489;28;20219;-67
2022/05/04 10:35:52;;;;;;;1.17;1.17;;;20.00;99.90;;;;;;5053476;28;20204;-68
2022/05/04 10:38:30;;;;;;;1.00;1.00;;;20.10;99.90;;;;;;5053205;28;20239;-68
2022/05/04 10:40:58;;;;;;;0.90;0.90;;;20.20;99.90;;;;;;5055785;28;20235;-68
2022/05/04 10:43:38;;;;;;;1.30;1.30;;;20.40;99.90;;;;;;5055691;28;20250;-68
2022/05/04 10:46:07;;;;;;;0.93;0.93;;;20.50;99.90;;;;;;5056236;28;20192;-68
2022/05/04 10:48:34;;;;;;;1.30;1.30;;;20.60;99.90;;;;;;5055304;28;20217;-68
2022/05/04 10:51:21;;;;;;;1.40;1.30;;;20.70;99.90;;;;;;5055850;28;20210;-67
2022/05/04 10:53:50;;;;;;;1.23;1.23;;;20.20;99.90;;;;;;5062633;28;20191;-68
2022/05/04 10:56:18;;;;;;;1.50;1.40;;;20.00;99.90;;;;;;5064465;28;20211;-69
2022/05/04 10:58:56;;;;;;;1.10;1.10;;;20.00;99.90;;;;;;5062487;28;20741;-67
2022/05/04 11:01:25;;;;;;;1.20;1.20;;;20.20;99.90;;;;;;5056628;28;20208;-67
2022/05/04 11:03:57;;;;;;;1.50;1.40;;;20.20;99.90;;;;;;5055757;28;20224;-66
2022/05/04 11:06:29;;;;;;;1.10;1.10;;;20.30;99.90;;;;;;5055689;28;20199;-68
2022/05/04 11:09:00;;;;;;;1.10;1.10;;;20.50;99.90;;;;;;5055676;28;20283;-67
2022/05/04 11:11:28;;;;;;;1.13;1.13;;;20.70;99.90;;;;;;5055221;28;20227;-67
2022/05/04 11:13:57;;;;;;;1.17;1.17;;;20.70;99.90;;;;;;5055876;28;20192;-67
2022/05/04 11:16:26;;;;;;;1.10;1.10;;;20.80;99.90;;;;;;5055804;28;20232;-68
2022/05/04 11:18:53;;;;;;;1.20;1.20;;;21.00;99.90;;;;;;5055256;28;20856;-68
2022/05/04 11:21:20;;;;;;;0.95;0.95;;;21.10;99.90;;;;;;5055487;28;20214;-66
2022/05/04 11:23:49;;;;;;;1.20;1.10;;;21.20;99.90;;;;;;5055153;28;20286;-67
2022/05/04 11:26:22;;;;;;;1.15;1.15;;;21.10;99.90;;;;;;5055321;28;20253;-67
2022/05/04 11:28:49;;;;;;;1.30;1.20;;;21.20;99.90;;;;;;5054481;28;20239;-68
2022/05/04 11:31:19;;;;;;;0.93;0.93;;;21.20;99.90;;;;;;5055323;28;20687;-67
2022/05/04 11:33:47;;;;;;;0.90;0.90;;;21.30;99.90;;;;;;5055450;28;20670;-67
2022/05/04 11:36:17;;;;;;;1.02;1.02;;;21.50;99.90;;;;;;5054913;28;20210;-67
2022/05/04 11:38:46;;;;;;;0.90;0.90;;;21.50;99.90;;;;;;5054918;28;20234;-67
2022/05/04 11:41:13;;;;;;;0.90;0.90;;;21.70;99.90;;;;;;5054894;28;20689;-68
2022/05/04 11:43:40;;;;;;;1.00;1.00;;;21.80;99.90;;;;;;5054869;28;20228;-67
2022/05/04 11:46:09;;;;;;;0.90;0.90;;;21.90;99.90;;;;;;5054989;28;20704;-67
2022/05/04 11:48:39;;;;;;;1.02;1.02;;;21.90;99.90;;;;;;5054032;28;20553;-67
2022/05/04 11:51:07;;;;;;;1.00;1.00;;;21.80;99.90;;;;;;5054236;28;20685;-67
2022/05/04 11:53:34;;;;;;;0.90;0.90;;;21.70;99.90;;;;;;5055497;28;20227;-68
2022/05/04 11:56:03;;;;;;;1.00;1.00;;;21.80;99.90;;;;;;5054863;28;20210;-67
2022/05/04 11:58:31;;;;;;;0.90;0.90;;;21.90;99.90;;;;;;5054883;28;20303;-67
2022/05/04 12:00:58;;;;;;;1.00;1.00;;;21.80;99.90;;;;;;5055077;28;20208;-68
2022/05/04 12:03:26;;;;;;;1.25;1.10;;;21.80;99.90;;;;;;5057623;28;20263;-68
2022/05/04 12:05:55;;;;;;;1.17;1.10;;;21.80;99.90;;;;;;5054683;28;20216;-67
2022/05/04 12:08:23;;;;;;;0.90;0.85;;;21.90;99.90;;;;;;5054798;28;20206;-68
2022/05/04 12:10:51;;;;;;;1.00;1.00;;;22.00;99.90;;;;;;5056038;28;20231;-67
2022/05/04 12:13:22;;;;;;;0.77;0.77;;;22.00;99.90;;;;;;5056884;28;20310;-67
2022/05/04 12:15:50;;;;;;;0.93;0.93;;;22.00;99.90;;;;;;5058476;28;20192;-68
2022/05/04 12:18:17;;;;;;;0.80;0.80;;;22.00;99.90;;;;;;5060295;28;20210;-68
2022/05/04 12:20:45;;;;;;;1.00;1.00;;;22.10;99.90;;;;;;5061367;28;20220;-69
2022/05/04 12:23:15;;;;;;;1.10;1.10;;;22.10;99.90;;;;;;5060006;28;20274;-68
2022/05/04 12:25:43;;;;;;;1.00;1.00;;;22.00;99.90;;;;;;5056689;28;20254;-67
2022/05/04 12:28:10;;;;;;;0.90;0.90;;;21.90;99.90;;;;;;5057441;28;20267;-69
2022/05/04 12:33:31;;;;;;;0.90;0.90;;;22.00;99.90;;;;;;5055813;28;20211;-68
2022/05/04 12:36:00;;;;;;;0.93;0.93;;;22.20;99.90;;;;;;5056421;28;20693;-68
2022/05/04 12:38:29;;;;;;;1.00;1.00;;;22.20;99.90;;;;;;5056164;28;20203;-68
2022/05/04 12:40:57;;;;;;;0.90;0.90;;;22.20;99.90;;;;;;5055275;28;20207;-68
2022/05/04 12:43:26;;;;;;;1.00;1.00;;;22.20;99.90;;;;;;5055928;28;20300;-67
2022/05/04 12:45:55;;;;;;;0.90;0.90;;;22.40;99.90;;;;;;5055657;28;20741;-67
2022/05/04 12:48:27;;;;;;;1.08;1.08;;;22.60;99.90;;;;;;5056152;28;20199;-68
2022/05/04 12:50:56;;;;;;;1.00;1.00;;;22.60;99.90;;;;;;5054993;28;20238;-67
2022/05/04 12:53:25;;;;;;;0.95;0.88;;;22.80;99.90;;;;;;5054859;28;20307;-67
2022/05/04 12:58:38;;;;;;;0.90;0.90;;;23.10;99.90;;;;;;5068944;28;20210;-70
2022/05/04 13:01:05;;;;;;;1.00;1.00;;;22.90;99.90;;;;;;5065145;28;20231;-68
2022/05/04 13:03:32;;;;;;;1.00;1.00;;;23.00;99.90;;;;;;5053713;28;20318;-68
2022/05/04 13:05:59;;;;;;;0.90;0.90;;;22.90;99.90;;;;;;5053263;28;20204;-68
2022/05/04 13:08:26;;;;;;;0.90;0.90;;;22.60;99.90;;;;;;5052938;28;20240;-67
2022/05/04 13:10:55;;;;;;;0.90;0.90;;;22.90;99.90;;;;;;5052562;28;20555;-67
2022/05/04 13:13:25;;;;;;;0.80;0.80;;;23.20;99.90;;;;;;5052545;28;20263;-68
2022/05/04 13:15:52;;;;;;;0.85;0.85;;;23.30;99.90;;;;;;5052704;28;20235;-68
2022/05/04 13:18:19;;;;;;;0.80;0.80;;;23.30;99.90;;;;;;5053141;28;20666;-68
2022/05/04 13:20:47;;;;;;;1.00;1.00;;;23.40;99.90;;;;;;5052751;28;20290;-68
2022/05/04 13:23:14;;;;;;;1.00;1.00;;;23.50;99.90;;;;;;5052627;28;20331;-68
2022/05/04 13:25:40;;;;;;;0.82;0.82;;;23.60;99.90;;;;;;5053132;28;20295;-68
2022/05/04 13:28:09;;;;;;;1.10;1.10;;;23.50;99.90;;;;;;5052889;28;20620;-68
2022/05/04 13:30:36;;;;;;;0.93;0.93;;;23.30;99.90;;;;;;5052414;28;20218;-68
2022/05/04 13:33:03;;;;;;;1.00;1.00;;;23.20;99.90;;;;;;5036240;28;20220;-68
2022/05/04 13:35:31;;;;;;;0.90;0.90;;;22.90;99.90;;;;;;5040418;28;20203;-67